createdAt,value
2023-02-19T00:01:12.583Z,7.50
2023-02-19T00:04:24.725Z,7.57
2023-02-19T00:07:26.539Z,7.40
2023-02-19T00:10:28.245Z,8.03
2023-02-19T00:13:30.439Z,7.60
2023-02-19T00:16:37.529Z,7.93
2023-02-19T00:19:39.289Z,7.90
2023-02-19T00:22:41.131Z,7.97
2023-02-19T00:25:42.889Z,7.47
2023-02-19T00:28:45.058Z,7.70
2023-02-19T00:31:47.844Z,7.97
2023-02-19T00:34:49.546Z,8.33
2023-02-19T00:37:51.273Z,8.73
2023-02-19T00:40:53.088Z,8.33
2023-02-19T00:43:57.075Z,8.30
2023-02-19T00:46:58.826Z,8.27
2023-02-19T00:50:00.592Z,8.03
2023-02-19T00:53:02.448Z,7.80
2023-02-19T00:56:04.588Z,8.37
2023-02-19T00:59:06.360Z,7.97
2023-02-19T01:02:08.292Z,8.33
2023-02-19T01:05:10.065Z,8.20
2023-02-19T01:08:11.827Z,8.43
2023-02-19T01:11:14.250Z,8.40
2023-02-19T01:14:15.974Z,8.10
2023-02-19T01:17:17.678Z,7.97
2023-02-19T01:20:19.470Z,7.50
2023-02-19T01:23:21.209Z,8.30
2023-02-19T01:26:25.617Z,7.60
2023-02-19T01:29:27.416Z,7.33
2023-02-19T01:32:29.116Z,7.23
2023-02-19T01:35:30.871Z,7.83
2023-02-19T01:38:32.732Z,7.30
2023-02-19T01:41:38.888Z,7.57
2023-02-19T01:44:40.523Z,7.00
2023-02-19T01:47:42.313Z,6.83
2023-02-19T01:51:03.656Z,7.40
2023-02-19T01:54:08.588Z,7.23
2023-02-19T01:57:16.079Z,6.97
2023-02-19T02:00:18.193Z,6.57
2023-02-19T02:03:20.915Z,6.80
2023-02-19T02:06:36.599Z,6.67
2023-02-19T02:09:56.888Z,6.80
2023-02-19T02:12:58.883Z,7.23
2023-02-19T02:16:19.379Z,7.50
2023-02-19T02:19:47.002Z,6.77
2023-02-19T02:22:57.751Z,6.50
2023-02-19T02:26:32.893Z,7.00
2023-02-19T02:30:04.572Z,7.07
2023-02-19T02:33:25.201Z,6.63
2023-02-19T02:36:40.604Z,6.87
2023-02-19T02:39:44.019Z,6.87
2023-02-19T02:42:45.973Z,7.17
2023-02-19T02:45:47.923Z,6.83
2023-02-19T02:48:54.089Z,7.00
2023-02-19T02:51:58.270Z,6.93
2023-02-19T02:55:03.169Z,6.80
2023-02-19T02:58:06.042Z,7.10
2023-02-19T03:01:36.826Z,6.90
2023-02-19T03:05:22.937Z,6.70
2023-02-19T03:08:34.632Z,6.93
2023-02-19T03:11:58.617Z,6.40
2023-02-19T03:15:23.936Z,6.43
2023-02-19T03:18:49.367Z,7.13
2023-02-19T03:22:02.070Z,6.83
2023-02-19T03:25:30.978Z,6.87
2023-02-19T03:28:56.483Z,6.73
2023-02-19T03:32:20.929Z,6.87
2023-02-19T03:35:26.963Z,6.90
2023-02-19T03:38:40.838Z,6.43
2023-02-19T03:42:12.758Z,6.47
2023-02-19T03:45:20.802Z,6.50
2023-02-19T03:48:30.018Z,6.50
2023-02-19T03:51:45.849Z,6.27
2023-02-19T03:55:06.270Z,6.10
2023-02-19T03:58:10.198Z,6.47
2023-02-19T04:01:36.132Z,6.10
2023-02-19T04:04:44.204Z,5.53
2023-02-19T04:07:49.885Z,5.90
2023-02-19T04:10:53.697Z,5.90
2023-02-19T04:13:58.284Z,5.60
2023-02-19T04:17:04.789Z,5.57
2023-02-19T04:20:09.995Z,5.77
2023-02-19T04:23:13.949Z,5.87
2023-02-19T04:26:17.879Z,4.93
2023-02-19T04:29:19.611Z,5.20
2023-02-19T04:32:21.422Z,5.13
2023-02-19T04:35:23.130Z,4.80
2023-02-19T04:38:24.887Z,5.23
2023-02-19T04:41:26.762Z,5.10
2023-02-19T04:44:28.661Z,5.10
2023-02-19T04:47:32.260Z,4.50
2023-02-19T04:50:34.065Z,4.43
2023-02-19T04:53:36.878Z,4.60
2023-02-19T04:56:39.793Z,4.50
2023-02-19T04:59:41.612Z,4.63
2023-02-19T05:02:43.410Z,4.73
2023-02-19T05:05:45.227Z,4.60
2023-02-19T05:08:47.012Z,4.60
2023-02-19T05:11:48.778Z,4.30
2023-02-19T05:14:50.946Z,4.20
2023-02-19T05:17:52.713Z,4.13
2023-02-19T05:20:54.591Z,4.37
2023-02-19T05:23:56.383Z,4.23
2023-02-19T05:26:58.168Z,4.33
2023-02-19T05:29:59.982Z,4.13
2023-02-19T05:33:01.756Z,3.73
2023-02-19T05:36:09.225Z,3.77
2023-02-19T05:39:12.392Z,3.60
2023-02-19T05:42:15.487Z,3.10
2023-02-19T05:45:17.215Z,2.70
2023-02-19T05:48:19.138Z,3.03
2023-02-19T05:51:23.613Z,2.43
2023-02-19T05:54:28.075Z,2.70
2023-02-19T05:57:29.957Z,2.70
2023-02-19T06:00:33.718Z,2.80
2023-02-19T06:03:35.505Z,3.17
2023-02-19T06:06:37.384Z,2.87
2023-02-19T06:09:39.155Z,3.43
2023-02-19T06:12:40.960Z,3.80
2023-02-19T06:15:42.756Z,3.37
2023-02-19T06:18:45.575Z,3.50
2023-02-19T06:21:50.354Z,3.70
2023-02-19T06:24:52.157Z,3.47
2023-02-19T06:27:53.946Z,3.27
2023-02-19T06:30:55.711Z,3.40
2023-02-19T06:33:57.746Z,3.57
2023-02-19T06:37:00.087Z,3.60
2023-02-19T06:40:01.806Z,3.50
2023-02-19T06:43:03.573Z,3.80
2023-02-19T06:46:07.031Z,3.50
2023-02-19T06:49:09.105Z,3.40
2023-02-19T06:52:10.919Z,3.50
2023-02-19T06:55:12.638Z,3.50
2023-02-19T06:58:14.445Z,3.30
2023-02-19T07:01:16.292Z,3.13
2023-02-19T07:04:18.151Z,3.17
2023-02-19T07:07:19.906Z,2.70
2023-02-19T07:10:21.703Z,2.77
2023-02-19T07:13:24.942Z,2.63
2023-02-19T07:16:27.455Z,2.43
2023-02-19T07:19:29.277Z,2.53
2023-02-19T07:22:31.021Z,2.33
2023-02-19T07:25:32.829Z,2.10
2023-02-19T07:28:34.617Z,2.13
2023-02-19T07:31:36.448Z,2.37
2023-02-19T07:34:38.312Z,1.83
2023-02-19T07:37:41.584Z,1.93
2023-02-19T07:40:50.563Z,1.90
2023-02-19T07:43:53.424Z,1.63
2023-02-19T07:46:55.148Z,1.80
2023-02-19T07:49:56.956Z,1.40
2023-02-19T07:52:58.760Z,1.70
2023-02-19T07:56:02.311Z,1.73
2023-02-19T07:59:04.808Z,1.70
2023-02-19T08:02:38.823Z,1.67
2023-02-19T08:05:42.483Z,1.60
2023-02-19T08:08:44.282Z,1.77
2023-02-19T08:12:04.813Z,1.80
2023-02-19T08:15:06.844Z,1.87
2023-02-19T08:18:09.439Z,1.53
2023-02-19T08:21:11.878Z,1.80
2023-02-19T08:24:13.912Z,1.57
2023-02-19T08:27:15.653Z,1.80
2023-02-19T08:30:17.529Z,1.47
2023-02-19T08:33:21.203Z,1.60
2023-02-19T08:36:22.953Z,1.57
2023-02-19T08:39:24.801Z,1.90
2023-02-19T08:42:27.982Z,1.53
2023-02-19T08:45:30.190Z,1.50
2023-02-19T08:48:31.971Z,1.73
2023-02-19T08:51:33.780Z,1.70
2023-02-19T08:54:37.272Z,1.90
2023-02-19T08:57:39.328Z,1.73
2023-02-19T09:00:41.167Z,2.20
2023-02-19T09:03:43.387Z,1.93
2023-02-19T09:06:45.282Z,1.60
2023-02-19T09:09:47.285Z,2.10
2023-02-19T09:12:49.106Z,2.27
2023-02-19T09:15:50.866Z,2.13
2023-02-19T09:18:52.685Z,2.47
2023-02-19T09:21:55.315Z,2.20
2023-02-19T09:24:57.062Z,2.20
2023-02-19T09:27:58.852Z,2.50
2023-02-19T09:31:08.977Z,2.40
2023-02-19T09:34:11.822Z,2.20
2023-02-19T09:37:13.614Z,2.07
2023-02-19T09:40:21.450Z,2.10
2023-02-19T09:43:27.818Z,2.10
2023-02-19T09:46:32.257Z,2.00
2023-02-19T09:49:37.154Z,1.70
2023-02-19T09:52:47.429Z,1.50
2023-02-19T09:55:49.541Z,1.63
2023-02-19T09:58:54.424Z,1.40
2023-02-19T10:02:04.300Z,1.47
2023-02-19T10:05:14.522Z,1.70
2023-02-19T10:08:21.311Z,1.47
2023-02-19T10:11:25.817Z,1.60
2023-02-19T10:14:42.108Z,1.40
2023-02-19T10:17:43.839Z,1.20
2023-02-19T10:20:47.159Z,1.03
2023-02-19T10:23:56.433Z,1.30
2023-02-19T10:26:58.279Z,1.20
2023-02-19T10:30:02.081Z,1.57
2023-02-19T10:33:13.131Z,1.50
2023-02-19T10:36:33.497Z,1.37
2023-02-19T10:39:49.884Z,1.40
2023-02-19T10:42:56.262Z,1.80
2023-02-19T10:46:01.138Z,1.57
2023-02-19T10:49:46.382Z,2.17
2023-02-19T10:52:53.540Z,2.07
2023-02-19T10:56:11.929Z,1.87
2023-02-19T10:59:26.904Z,1.97
2023-02-19T11:02:30.244Z,2.27
2023-02-19T11:05:32.062Z,2.03
2023-02-19T11:08:59.676Z,2.10
2023-02-19T11:12:04.276Z,2.30
2023-02-19T11:15:32.622Z,1.90
2023-02-19T11:18:37.903Z,2.07
2023-02-19T11:21:39.685Z,2.10
2023-02-19T11:24:41.427Z,2.17
2023-02-19T11:28:31.717Z,1.97
2023-02-19T11:31:36.121Z,2.60
2023-02-19T11:34:37.927Z,2.70
2023-02-19T11:37:55.343Z,2.87
2023-02-19T11:41:26.990Z,3.27
2023-02-19T11:44:34.580Z,3.03
2023-02-19T11:47:39.523Z,2.63
2023-02-19T11:50:54.196Z,2.20
2023-02-19T11:54:10.578Z,2.60
2023-02-19T11:57:30.429Z,2.20
2023-02-19T12:00:40.864Z,1.80
2023-02-19T12:03:48.143Z,1.80
2023-02-19T12:07:12.093Z,1.50
2023-02-19T12:10:18.556Z,0.97
2023-02-19T12:14:02.146Z,0.83
2023-02-19T12:17:13.515Z,1.07
2023-02-19T12:20:22.572Z,0.90
2023-02-19T12:24:00.904Z,0.70
2023-02-19T12:27:52.279Z,0.73
2023-02-19T12:30:54.197Z,0.87
2023-02-19T12:34:29.005Z,0.90
2023-02-19T12:37:40.091Z,0.90
2023-02-19T12:40:45.129Z,1.07
2023-02-19T12:44:16.834Z,1.00
2023-02-19T12:47:26.375Z,0.90
2023-02-19T12:50:30.664Z,1.00
2023-02-19T12:54:01.473Z,1.10
2023-02-19T12:57:10.451Z,0.80
2023-02-19T13:00:39.457Z,1.00
2023-02-19T13:03:49.343Z,1.00
2023-02-19T13:06:57.594Z,1.10
2023-02-19T13:10:04.204Z,1.20
2023-02-19T13:13:10.266Z,1.30
2023-02-19T13:16:18.559Z,1.27
2023-02-19T13:19:20.360Z,1.50
2023-02-19T13:22:48.729Z,1.43
2023-02-19T13:26:01.532Z,1.40
2023-02-19T13:29:37.262Z,1.20
2023-02-19T13:32:51.148Z,1.30
2023-02-19T13:36:13.323Z,1.47
2023-02-19T13:39:17.308Z,1.30
2023-02-19T13:42:33.041Z,1.00
2023-02-19T13:45:39.618Z,1.40
2023-02-19T13:48:44.399Z,1.40
2023-02-19T13:51:51.099Z,1.40
2023-02-19T13:54:52.885Z,1.37
2023-02-19T13:57:54.913Z,1.70
2023-02-19T14:00:56.838Z,2.37
2023-02-19T14:04:20.587Z,2.27
2023-02-19T14:07:36.181Z,2.10
2023-02-19T14:10:54.413Z,2.00
2023-02-19T14:13:58.052Z,1.50
2023-02-19T14:17:09.120Z,1.40
2023-02-19T14:20:17.159Z,2.00
2023-02-19T14:23:24.234Z,1.87
2023-02-19T14:26:27.972Z,1.47
2023-02-19T14:29:29.949Z,1.40
2023-02-19T14:32:31.779Z,1.70
2023-02-19T14:35:41.300Z,1.70
2023-02-19T14:39:05.781Z,1.77
2023-02-19T14:42:17.744Z,1.60
2023-02-19T14:45:21.203Z,1.47
2023-02-19T14:48:38.231Z,1.40
2023-02-19T14:51:44.209Z,1.30
2023-02-19T14:54:56.590Z,1.07
2023-02-19T14:58:01.808Z,0.60
2023-02-19T15:01:05.485Z,1.40
2023-02-19T15:04:19.623Z,1.40
2023-02-19T15:07:29.714Z,1.20
2023-02-19T15:10:33.393Z,1.17
2023-02-19T15:13:35.603Z,1.40
2023-02-19T15:16:37.791Z,1.17
2023-02-19T15:19:40.271Z,0.93
2023-02-19T15:22:42.344Z,1.03
2023-02-19T15:25:44.126Z,1.50
2023-02-19T15:28:45.897Z,1.33
2023-02-19T15:31:58.919Z,1.60
2023-02-19T15:35:05.200Z,1.50
2023-02-19T15:38:12.798Z,1.33
2023-02-19T15:41:23.014Z,2.00
2023-02-19T15:44:33.809Z,1.33
2023-02-19T15:47:53.897Z,1.63
2023-02-19T15:51:08.199Z,1.10
2023-02-19T15:54:27.656Z,0.83
2023-02-19T15:57:36.606Z,0.50
2023-02-19T16:00:53.072Z,0.50
2023-02-19T16:03:55.493Z,0.57
2023-02-19T16:07:02.477Z,0.60
2023-02-19T16:10:24.087Z,0.60
2023-02-19T16:13:27.980Z,0.53
2023-02-19T16:16:36.160Z,0.90
2023-02-19T16:19:44.190Z,0.87
2023-02-19T16:22:46.346Z,0.73
2023-02-19T16:25:48.430Z,0.77
2023-02-19T16:28:54.729Z,0.80
2023-02-19T16:32:02.903Z,1.30
2023-02-19T16:35:05.907Z,0.70
2023-02-19T16:38:16.202Z,1.10
2023-02-19T16:41:17.947Z,1.20
2023-02-19T16:44:27.364Z,4.67
2023-02-19T16:47:34.901Z,2.53
2023-02-19T16:50:36.952Z,2.23
2023-02-19T16:53:38.902Z,1.00
2023-02-19T16:56:40.790Z,1.30
2023-02-19T16:59:42.566Z,1.30
2023-02-19T17:02:50.960Z,1.40
2023-02-19T17:05:53.207Z,1.70
2023-02-19T17:08:54.915Z,1.97
2023-02-19T17:11:56.685Z,1.57
2023-02-19T17:14:58.406Z,1.30
2023-02-19T17:18:00.250Z,1.10
2023-02-19T17:21:12.297Z,2.10
2023-02-19T17:24:14.692Z,1.30
2023-02-19T17:27:16.453Z,1.00
2023-02-19T17:30:25.595Z,1.00
2023-02-19T17:33:27.397Z,1.00
2023-02-19T17:36:31.534Z,0.80
2023-02-19T17:39:33.237Z,0.97
2023-02-19T17:42:34.931Z,1.00
2023-02-19T17:45:36.667Z,1.37
2023-02-19T17:48:38.387Z,1.30
2023-02-19T17:51:40.122Z,1.73
2023-02-19T17:54:42.995Z,2.30
2023-02-19T17:57:49.495Z,3.23
2023-02-19T18:00:51.497Z,2.90
2023-02-19T18:03:53.249Z,2.20
2023-02-19T18:06:55.874Z,2.20
2023-02-19T18:09:57.603Z,2.60
2023-02-19T18:12:59.433Z,2.63
2023-02-19T18:16:01.173Z,2.00
2023-02-19T18:19:02.954Z,3.00
2023-02-19T18:22:06.516Z,2.80
2023-02-19T18:25:10.377Z,3.77
2023-02-19T18:28:12.136Z,2.77
2023-02-19T18:31:14.298Z,1.43
2023-02-19T18:34:18.807Z,2.23
2023-02-19T18:37:21.879Z,2.40
2023-02-19T18:40:28.437Z,2.70
2023-02-19T18:43:30.258Z,1.70
2023-02-19T18:46:32.440Z,1.70
2023-02-19T18:49:34.227Z,1.93
2023-02-19T18:52:35.992Z,1.90
2023-02-19T18:55:37.758Z,1.80
2023-02-19T18:58:39.556Z,2.17
2023-02-19T19:01:41.517Z,2.30
2023-02-19T19:04:43.448Z,2.07
2023-02-19T19:07:45.239Z,3.20
2023-02-19T19:10:46.987Z,3.53
2023-02-19T19:13:48.856Z,3.60
2023-02-19T19:16:50.684Z,3.23
2023-02-19T19:19:52.450Z,5.20
2023-02-19T19:22:54.593Z,4.00
2023-02-19T19:25:56.430Z,3.70
2023-02-19T19:28:58.238Z,20.43
2023-02-19T19:32:00.088Z,13.17
2023-02-19T19:35:01.935Z,7.63
2023-02-19T19:38:03.813Z,6.47
2023-02-19T19:41:05.916Z,12.47
2023-02-19T19:44:08.839Z,11.90
2023-02-19T19:47:10.642Z,10.17
2023-02-19T19:50:14.478Z,7.13
2023-02-19T19:53:16.735Z,8.90
2023-02-19T19:56:19.093Z,4.60
2023-02-19T19:59:21.596Z,4.13
2023-02-19T20:02:23.834Z,3.80
2023-02-19T20:05:25.678Z,3.80
2023-02-19T20:08:27.426Z,3.50
2023-02-19T20:11:29.218Z,3.17
2023-02-19T20:14:31.122Z,3.40
2023-02-19T20:17:32.992Z,3.50
2023-02-19T20:20:34.683Z,3.73
2023-02-19T20:23:39.204Z,3.97
2023-02-19T20:26:40.961Z,4.40
2023-02-19T20:29:44.593Z,5.07
2023-02-19T20:32:46.551Z,6.27
2023-02-19T20:35:48.536Z,7.50
2023-02-19T20:38:50.418Z,8.60
2023-02-19T20:41:52.284Z,7.97
2023-02-19T20:44:53.995Z,6.50
2023-02-19T20:47:55.838Z,6.40
2023-02-19T20:51:00.012Z,6.33
2023-02-19T20:54:01.811Z,7.03
2023-02-19T20:57:05.503Z,5.30
2023-02-19T21:00:08.808Z,6.27
2023-02-19T21:03:11.714Z,6.27
2023-02-19T21:06:13.756Z,5.27
2023-02-19T21:09:15.598Z,5.00
2023-02-19T21:12:17.572Z,5.43
2023-02-19T21:15:20.114Z,5.50
2023-02-19T21:18:21.892Z,5.33
2023-02-19T21:21:26.177Z,6.20
2023-02-19T21:24:27.999Z,6.43
2023-02-19T21:27:29.727Z,5.90
2023-02-19T21:30:31.498Z,6.30
2023-02-19T21:33:33.348Z,6.30
2023-02-19T21:36:35.937Z,6.83
2023-02-19T21:39:38.840Z,5.93
2023-02-19T21:42:40.641Z,6.03
2023-02-19T21:45:43.056Z,6.07
2023-02-19T21:48:48.527Z,6.27
2023-02-19T21:51:50.414Z,6.70
2023-02-19T21:54:52.531Z,6.87
2023-02-19T21:57:54.738Z,7.33
2023-02-19T22:00:58.085Z,6.60
2023-02-19T22:04:00.270Z,6.63
2023-02-19T22:07:01.981Z,6.47
2023-02-19T22:10:04.422Z,6.70
2023-02-19T22:13:06.155Z,7.00
2023-02-19T22:16:08.246Z,6.40
2023-02-19T22:19:12.099Z,7.00
2023-02-19T22:22:15.124Z,6.80
2023-02-19T22:25:17.251Z,6.87
2023-02-19T22:28:19.130Z,7.03
2023-02-19T22:31:23.980Z,6.70
2023-02-19T22:34:25.841Z,7.83
2023-02-19T22:37:29.652Z,6.90
2023-02-19T22:40:31.421Z,8.00
2023-02-19T22:43:33.435Z,7.43
2023-02-19T22:46:35.272Z,8.93
2023-02-19T22:49:40.667Z,8.83
2023-02-19T22:52:43.579Z,8.10
2023-02-19T22:55:45.520Z,9.17
2023-02-19T22:58:47.256Z,8.40
2023-02-19T23:01:50.080Z,8.03
2023-02-19T23:04:51.791Z,8.07
2023-02-19T23:07:54.758Z,9.27
2023-02-19T23:10:56.609Z,9.17
2023-02-19T23:13:59.069Z,8.53
2023-02-19T23:17:01.097Z,8.77
2023-02-19T23:20:03.211Z,8.60
2023-02-19T23:23:05.120Z,8.10
2023-02-19T23:26:06.862Z,8.73
2023-02-19T23:29:08.624Z,8.80
2023-02-19T23:32:10.617Z,8.20
2023-02-19T23:35:12.504Z,8.70
2023-02-19T23:38:14.347Z,8.20
2023-02-19T23:41:17.865Z,7.83
2023-02-19T23:44:21.106Z,8.10
2023-02-19T23:47:22.884Z,8.70
2023-02-19T23:50:24.712Z,8.13
2023-02-19T23:53:26.642Z,7.90
2023-02-19T23:56:29.319Z,8.10
2023-02-19T23:59:31.057Z,8.50
